sensor_id;sensor_type;location;lat;lon;timestamp;temperature;humidity
55812;DHT22;41742;52.048;6.092;2022-08-01T00:00:13;19.00;99.90
55812;DHT22;41742;52.048;6.092;2022-08-01T00:02:39;19.00;99.90
55812;DHT22;41742;52.048;6.092;2022-08-01T00:05:06;19.00;99.90
55812;DHT22;41742;52.048;6.092;2022-08-01T00:07:35;18.90;99.90
55812;DHT22;41742;52.048;6.092;2022-08-01T00:10:04;18.90;99.90
55812;DHT22;41742;52.048;6.092;2022-08-01T00:12:29;18.90;99.90
55812;DHT22;41742;52.048;6.092;2022-08-01T00:14:55;18.90;99.90
55812;DHT22;41742;52.048;6.092;2022-08-01T00:17:21;18.90;99.90
55812;DHT22;41742;52.048;6.092;2022-08-01T00:19:46;18.90;99.90
55812;DHT22;41742;52.048;6.092;2022-08-01T00:22:12;18.90;99.90
55812;DHT22;41742;52.048;6.092;2022-08-01T00:24:37;18.80;99.90
55812;DHT22;41742;52.048;6.092;2022-08-01T00:27:03;18.90;99.90
55812;DHT22;41742;52.048;6.092;2022-08-01T00:29:29;18.90;99.90
55812;DHT22;41742;52.048;6.092;2022-08-01T00:31:55;18.90;99.90
55812;DHT22;41742;52.048;6.092;2022-08-01T00:34:20;18.90;99.90
55812;DHT22;41742;52.048;6.092;2022-08-01T00:36:46;18.90;99.90
55812;DHT22;41742;52.048;6.092;2022-08-01T00:39:12;18.90;99.90
55812;DHT22;41742;52.048;6.092;2022-08-01T00:41:37;18.80;99.90
55812;DHT22;41742;52.048;6.092;2022-08-01T00:44:05;18.80;99.90
55812;DHT22;41742;52.048;6.092;2022-08-01T00:46:31;18.80;99.90
55812;DHT22;41742;52.048;6.092;2022-08-01T00:48:58;18.80;99.90
55812;DHT22;41742;52.048;6.092;2022-08-01T00:51:24;18.80;99.90
55812;DHT22;41742;52.048;6.092;2022-08-01T00:53:50;18.90;99.90
55812;DHT22;41742;52.048;6.092;2022-08-01T00:56:17;18.80;99.90
55812;DHT22;41742;52.048;6.092;2022-08-01T00:58:42;18.70;99.90
55812;DHT22;41742;52.048;6.092;2022-08-01T01:01:09;18.70;99.90
55812;DHT22;41742;52.048;6.092;2022-08-01T01:03:35;18.70;99.90
55812;DHT22;41742;52.048;6.092;2022-08-01T01:06:13;18.70;99.90
55812;DHT22;41742;52.048;6.092;2022-08-01T01:08:43;18.70;99.90
55812;DHT22;41742;52.048;6.092;2022-08-01T01:11:23;18.70;99.90
55812;DHT22;41742;52.048;6.092;2022-08-01T01:13:57;18.70;99.90
55812;DHT22;41742;52.048;6.092;2022-08-01T01:16:24;18.70;99.90
55812;DHT22;41742;52.048;6.092;2022-08-01T01:18:54;18.70;99.90
55812;DHT22;41742;52.048;6.092;2022-08-01T01:24:10;18.70;99.90
55812;DHT22;41742;52.048;6.092;2022-08-01T01:29:46;18.60;99.90
55812;DHT22;41742;52.048;6.092;2022-08-01T01:32:19;18.60;99.90
55812;DHT22;41742;52.048;6.092;2022-08-01T01:34:48;18.60;99.90
55812;DHT22;41742;52.048;6.092;2022-08-01T01:37:17;18.50;99.90
55812;DHT22;41742;52.048;6.092;2022-08-01T01:39:44;18.60;99.90
55812;DHT22;41742;52.048;6.092;2022-08-01T01:42:12;18.50;99.90
55812;DHT22;41742;52.048;6.092;2022-08-01T01:44:39;18.50;99.90
55812;DHT22;41742;52.048;6.092;2022-08-01T01:47:05;18.60;99.90
55812;DHT22;41742;52.048;6.092;2022-08-01T01:49:32;18.50;99.90
55812;DHT22;41742;52.048;6.092;2022-08-01T01:52:00;18.50;99.90
55812;DHT22;41742;52.048;6.092;2022-08-01T01:54:45;18.40;99.90
55812;DHT22;41742;52.048;6.092;2022-08-01T01:57:12;18.40;99.90
55812;DHT22;41742;52.048;6.092;2022-08-01T01:59:39;18.40;99.90
55812;DHT22;41742;52.048;6.092;2022-08-01T02:02:06;18.40;99.90
55812;DHT22;41742;52.048;6.092;2022-08-01T02:04:35;18.40;99.90
55812;DHT22;41742;52.048;6.092;2022-08-01T02:07:03;18.40;99.90
55812;DHT22;41742;52.048;6.092;2022-08-01T02:09:30;18.40;99.90
55812;DHT22;41742;52.048;6.092;2022-08-01T02:11:57;18.40;99.90
55812;DHT22;41742;52.048;6.092;2022-08-01T02:14:24;18.40;99.90
55812;DHT22;41742;52.048;6.092;2022-08-01T02:16:54;18.40;99.90
55812;DHT22;41742;52.048;6.092;2022-08-01T02:19:20;18.40;99.90
55812;DHT22;41742;52.048;6.092;2022-08-01T02:21:59;18.40;99.90
55812;DHT22;41742;52.048;6.092;2022-08-01T02:26:58;18.30;99.90
55812;DHT22;41742;52.048;6.092;2022-08-01T02:29:36;18.30;99.90
55812;DHT22;41742;52.048;6.092;2022-08-01T02:32:04;18.30;99.90
55812;DHT22;41742;52.048;6.092;2022-08-01T02:34:34;18.30;99.90
55812;DHT22;41742;52.048;6.092;2022-08-01T02:37:00;18.20;99.90
55812;DHT22;41742;52.048;6.092;2022-08-01T02:39:30;18.20;99.90
55812;DHT22;41742;52.048;6.092;2022-08-01T02:42:00;18.20;99.90
55812;DHT22;41742;52.048;6.092;2022-08-01T02:44:35;18.20;99.90
55812;DHT22;41742;52.048;6.092;2022-08-01T02:47:02;18.20;99.90
55812;DHT22;41742;52.048;6.092;2022-08-01T02:49:42;18.20;99.90
55812;DHT22;41742;52.048;6.092;2022-08-01T02:52:12;18.20;99.90
55812;DHT22;41742;52.048;6.092;2022-08-01T02:54:39;18.30;99.90
55812;DHT22;41742;52.048;6.092;2022-08-01T02:57:06;18.30;99.90
55812;DHT22;41742;52.048;6.092;2022-08-01T02:59:33;18.30;99.90
55812;DHT22;41742;52.048;6.092;2022-08-01T03:02:00;18.30;99.90
55812;DHT22;41742;52.048;6.092;2022-08-01T03:04:27;18.30;99.90
55812;DHT22;41742;52.048;6.092;2022-08-01T03:06:54;18.30;99.90
55812;DHT22;41742;52.048;6.092;2022-08-01T03:09:21;18.30;99.90
55812;DHT22;41742;52.048;6.092;2022-08-01T03:11:48;18.30;99.90
55812;DHT22;41742;52.048;6.092;2022-08-01T03:14:16;18.30;99.90
55812;DHT22;41742;52.048;6.092;2022-08-01T03:16:44;18.30;99.90
55812;DHT22;41742;52.048;6.092;2022-08-01T03:19:11;18.30;99.90
55812;DHT22;41742;52.048;6.092;2022-08-01T03:21:39;18.20;99.90
55812;DHT22;41742;52.048;6.092;2022-08-01T03:24:06;18.30;99.90
55812;DHT22;41742;52.048;6.092;2022-08-01T03:26:35;18.30;99.90
55812;DHT22;41742;52.048;6.092;2022-08-01T03:29:06;18.20;99.90
55812;DHT22;41742;52.048;6.092;2022-08-01T03:31:35;18.20;99.90
55812;DHT22;41742;52.048;6.092;2022-08-01T03:34:01;18.20;99.90
55812;DHT22;41742;52.048;6.092;2022-08-01T03:36:28;18.20;99.90
55812;DHT22;41742;52.048;6.092;2022-08-01T03:38:57;18.10;99.90
55812;DHT22;41742;52.048;6.092;2022-08-01T03:41:29;18.10;99.90
55812;DHT22;41742;52.048;6.092;2022-08-01T03:44:01;18.10;99.90
55812;DHT22;41742;52.048;6.092;2022-08-01T03:46:39;18.10;99.90
55812;DHT22;41742;52.048;6.092;2022-08-01T03:49:17;18.10;99.90
55812;DHT22;41742;52.048;6.092;2022-08-01T03:51:48;18.10;99.90
55812;DHT22;41742;52.048;6.092;2022-08-01T03:54:17;18.10;99.90
55812;DHT22;41742;52.048;6.092;2022-08-01T03:56:46;18.00;99.90
55812;DHT22;41742;52.048;6.092;2022-08-01T03:59:14;18.10;99.90
55812;DHT22;41742;52.048;6.092;2022-08-01T04:01:40;18.10;99.90
55812;DHT22;41742;52.048;6.092;2022-08-01T04:04:06;18.10;99.90
55812;DHT22;41742;52.048;6.092;2022-08-01T04:06:31;18.10;99.90
55812;DHT22;41742;52.048;6.092;2022-08-01T04:08:57;18.10;99.90
55812;DHT22;41742;52.048;6.092;2022-08-01T04:11:27;18.10;99.90
55812;DHT22;41742;52.048;6.092;2022-08-01T04:13:54;18.00;99.90
55812;DHT22;41742;52.048;6.092;2022-08-01T04:16:20;18.10;99.90
55812;DHT22;41742;52.048;6.092;2022-08-01T04:18:46;18.10;99.90
55812;DHT22;41742;52.048;6.092;2022-08-01T04:21:12;18.10;99.90
55812;DHT22;41742;52.048;6.092;2022-08-01T04:23:41;18.10;99.90
55812;DHT22;41742;52.048;6.092;2022-08-01T04:26:09;18.10;99.90
55812;DHT22;41742;52.048;6.092;2022-08-01T04:28:37;18.10;99.90
55812;DHT22;41742;52.048;6.092;2022-08-01T04:31:06;18.10;99.90
55812;DHT22;41742;52.048;6.092;2022-08-01T04:33:35;18.10;99.90
55812;DHT22;41742;52.048;6.092;2022-08-01T04:36:03;18.10;99.90
55812;DHT22;41742;52.048;6.092;2022-08-01T04:38:31;18.10;99.90
55812;DHT22;41742;52.048;6.092;2022-08-01T04:40:57;18.00;99.90
55812;DHT22;41742;52.048;6.092;2022-08-01T04:43:23;18.00;99.90
55812;DHT22;41742;52.048;6.092;2022-08-01T04:45:50;18.00;99.90
55812;DHT22;41742;52.048;6.092;2022-08-01T04:48:17;18.00;99.90
55812;DHT22;41742;52.048;6.092;2022-08-01T04:50:45;18.00;99.90
55812;DHT22;41742;52.048;6.092;2022-08-01T04:53:18;18.00;99.90
55812;DHT22;41742;52.048;6.092;2022-08-01T04:55:45;17.90;99.90
55812;DHT22;41742;52.048;6.092;2022-08-01T04:58:17;17.90;99.90
55812;DHT22;41742;52.048;6.092;2022-08-01T05:00:43;18.00;99.90
55812;DHT22;41742;52.048;6.092;2022-08-01T05:03:08;18.10;99.90
55812;DHT22;41742;52.048;6.092;2022-08-01T05:05:34;18.10;99.90
55812;DHT22;41742;52.048;6.092;2022-08-01T05:08:00;18.10;99.90
55812;DHT22;41742;52.048;6.092;2022-08-01T05:10:26;18.10;99.90
55812;DHT22;41742;52.048;6.092;2022-08-01T05:12:51;18.10;99.90
55812;DHT22;41742;52.048;6.092;2022-08-01T05:15:17;18.20;99.90
55812;DHT22;41742;52.048;6.092;2022-08-01T05:17:43;18.20;99.90
55812;DHT22;41742;52.048;6.092;2022-08-01T05:20:09;18.20;99.90
55812;DHT22;41742;52.048;6.092;2022-08-01T05:22:35;18.20;99.90
55812;DHT22;41742;52.048;6.092;2022-08-01T05:25:00;18.20;99.90
55812;DHT22;41742;52.048;6.092;2022-08-01T05:27:26;18.30;99.90
55812;DHT22;41742;52.048;6.092;2022-08-01T05:29:52;18.30;99.90
55812;DHT22;41742;52.048;6.092;2022-08-01T05:32:18;18.30;99.90
55812;DHT22;41742;52.048;6.092;2022-08-01T05:34:44;18.30;99.90
55812;DHT22;41742;52.048;6.092;2022-08-01T05:37:09;18.30;99.90
55812;DHT22;41742;52.048;6.092;2022-08-01T05:39:35;18.30;99.90
55812;DHT22;41742;52.048;6.092;2022-08-01T05:42:01;18.40;99.90
55812;DHT22;41742;52.048;6.092;2022-08-01T05:44:26;18.30;99.90
55812;DHT22;41742;52.048;6.092;2022-08-01T05:46:52;18.30;99.90
55812;DHT22;41742;52.048;6.092;2022-08-01T05:49:17;18.40;99.90
55812;DHT22;41742;52.048;6.092;2022-08-01T05:51:43;18.30;99.90
55812;DHT22;41742;52.048;6.092;2022-08-01T05:54:09;18.30;99.90
55812;DHT22;41742;52.048;6.092;2022-08-01T05:56:34;18.30;99.90
55812;DHT22;41742;52.048;6.092;2022-08-01T05:59:00;18.20;99.90
55812;DHT22;41742;52.048;6.092;2022-08-01T06:01:25;18.30;99.90
55812;DHT22;41742;52.048;6.092;2022-08-01T06:03:51;18.30;99.90
55812;DHT22;41742;52.048;6.092;2022-08-01T06:06:20;18.30;99.90
55812;DHT22;41742;52.048;6.092;2022-08-01T06:08:46;18.30;99.90
55812;DHT22;41742;52.048;6.092;2022-08-01T06:11:11;18.30;99.90
55812;DHT22;41742;52.048;6.092;2022-08-01T06:13:38;18.30;99.90
55812;DHT22;41742;52.048;6.092;2022-08-01T06:16:04;18.40;99.90
55812;DHT22;41742;52.048;6.092;2022-08-01T06:18:29;18.40;99.90
55812;DHT22;41742;52.048;6.092;2022-08-01T06:20:55;18.40;99.90
55812;DHT22;41742;52.048;6.092;2022-08-01T06:23:21;18.30;99.90
55812;DHT22;41742;52.048;6.092;2022-08-01T06:25:47;18.40;99.90
55812;DHT22;41742;52.048;6.092;2022-08-01T06:28:13;18.40;99.90
55812;DHT22;41742;52.048;6.092;2022-08-01T06:30:38;18.40;99.90
55812;DHT22;41742;52.048;6.092;2022-08-01T06:33:04;18.40;99.90
55812;DHT22;41742;52.048;6.092;2022-08-01T06:35:30;18.40;99.90
55812;DHT22;41742;52.048;6.092;2022-08-01T06:37:57;18.40;99.90
55812;DHT22;41742;52.048;6.092;2022-08-01T06:40:23;18.50;99.90
55812;DHT22;41742;52.048;6.092;2022-08-01T06:42:48;18.60;99.90
55812;DHT22;41742;52.048;6.092;2022-08-01T06:45:15;18.60;99.90
55812;DHT22;41742;52.048;6.092;2022-08-01T06:47:42;18.70;99.90
55812;DHT22;41742;52.048;6.092;2022-08-01T06:50:09;18.70;99.90
55812;DHT22;41742;52.048;6.092;2022-08-01T06:52:35;18.80;99.90
55812;DHT22;41742;52.048;6.092;2022-08-01T06:55:02;18.90;99.90
55812;DHT22;41742;52.048;6.092;2022-08-01T06:57:28;19.00;99.90
55812;DHT22;41742;52.048;6.092;2022-08-01T06:59:54;19.00;99.90
55812;DHT22;41742;52.048;6.092;2022-08-01T07:02:20;19.00;99.90
55812;DHT22;41742;52.048;6.092;2022-08-01T07:04:45;19.00;99.90
55812;DHT22;41742;52.048;6.092;2022-08-01T07:07:11;19.10;99.90
55812;DHT22;41742;52.048;6.092;2022-08-01T07:09:37;19.10;99.90
55812;DHT22;41742;52.048;6.092;2022-08-01T07:12:03;19.10;99.90
55812;DHT22;41742;52.048;6.092;2022-08-01T07:14:29;19.10;99.90
55812;DHT22;41742;52.048;6.092;2022-08-01T07:16:55;19.20;99.90
55812;DHT22;41742;52.048;6.092;2022-08-01T07:19:20;19.30;99.90
55812;DHT22;41742;52.048;6.092;2022-08-01T07:21:46;19.40;99.90
55812;DHT22;41742;52.048;6.092;2022-08-01T07:24:13;19.40;99.90
55812;DHT22;41742;52.048;6.092;2022-08-01T07:26:41;19.50;99.90
55812;DHT22;41742;52.048;6.092;2022-08-01T07:29:07;19.40;99.90
55812;DHT22;41742;52.048;6.092;2022-08-01T07:31:32;19.30;99.90
55812;DHT22;41742;52.048;6.092;2022-08-01T07:33:58;19.30;99.90
55812;DHT22;41742;52.048;6.092;2022-08-01T07:36:23;19.20;99.90
55812;DHT22;41742;52.048;6.092;2022-08-01T07:38:49;19.10;99.90
55812;DHT22;41742;52.048;6.092;2022-08-01T07:41:16;19.00;99.90
55812;DHT22;41742;52.048;6.092;2022-08-01T07:43:41;19.00;99.90
55812;DHT22;41742;52.048;6.092;2022-08-01T07:46:07;19.00;99.90
55812;DHT22;41742;52.048;6.092;2022-08-01T07:48:33;19.10;99.90
55812;DHT22;41742;52.048;6.092;2022-08-01T07:50:59;19.10;99.90
55812;DHT22;41742;52.048;6.092;2022-08-01T07:53:24;19.10;99.90
55812;DHT22;41742;52.048;6.092;2022-08-01T07:55:50;19.20;99.90
55812;DHT22;41742;52.048;6.092;2022-08-01T07:58:16;19.30;99.90
55812;DHT22;41742;52.048;6.092;2022-08-01T08:00:42;19.30;99.90
55812;DHT22;41742;52.048;6.092;2022-08-01T08:03:08;19.40;99.90
55812;DHT22;41742;52.048;6.092;2022-08-01T08:05:34;19.50;99.90
55812;DHT22;41742;52.048;6.092;2022-08-01T08:08:06;19.70;99.90
55812;DHT22;41742;52.048;6.092;2022-08-01T08:10:32;19.80;99.90
55812;DHT22;41742;52.048;6.092;2022-08-01T08:12:58;19.80;99.90
55812;DHT22;41742;52.048;6.092;2022-08-01T08:15:23;19.70;99.90
55812;DHT22;41742;52.048;6.092;2022-08-01T08:17:49;19.90;99.90
55812;DHT22;41742;52.048;6.092;2022-08-01T08:20:15;20.00;99.90
55812;DHT22;41742;52.048;6.092;2022-08-01T08:22:40;20.10;99.90
55812;DHT22;41742;52.048;6.092;2022-08-01T08:25:07;20.10;99.90
55812;DHT22;41742;52.048;6.092;2022-08-01T08:27:33;20.10;99.90
55812;DHT22;41742;52.048;6.092;2022-08-01T08:29:59;20.10;99.90
55812;DHT22;41742;52.048;6.092;2022-08-01T08:32:25;20.00;99.90
55812;DHT22;41742;52.048;6.092;2022-08-01T08:34:50;19.90;99.90
55812;DHT22;41742;52.048;6.092;2022-08-01T08:37:16;19.80;99.90
55812;DHT22;41742;52.048;6.092;2022-08-01T08:39:42;19.70;99.90
55812;DHT22;41742;52.048;6.092;2022-08-01T08:42:10;19.60;99.90
55812;DHT22;41742;52.048;6.092;2022-08-01T08:44:36;19.60;99.90
55812;DHT22;41742;52.048;6.092;2022-08-01T08:47:05;19.60;99.90
55812;DHT22;41742;52.048;6.092;2022-08-01T08:49:31;19.60;99.90
55812;DHT22;41742;52.048;6.092;2022-08-01T08:52:01;19.60;99.90
55812;DHT22;41742;52.048;6.092;2022-08-01T08:54:29;19.70;99.90
55812;DHT22;41742;52.048;6.092;2022-08-01T08:56:56;19.70;99.90
55812;DHT22;41742;52.048;6.092;2022-08-01T08:59:22;19.70;99.90
55812;DHT22;41742;52.048;6.092;2022-08-01T09:01:51;19.70;99.90
55812;DHT22;41742;52.048;6.092;2022-08-01T09:04:17;19.70;99.90
55812;DHT22;41742;52.048;6.092;2022-08-01T09:06:43;19.70;99.90
55812;DHT22;41742;52.048;6.092;2022-08-01T09:09:09;19.70;99.90
55812;DHT22;41742;52.048;6.092;2022-08-01T09:11:36;19.70;99.90
55812;DHT22;41742;52.048;6.092;2022-08-01T09:16:27;19.70;99.90
55812;DHT22;41742;52.048;6.092;2022-08-01T09:18:53;19.70;99.90
55812;DHT22;41742;52.048;6.092;2022-08-01T09:21:21;19.80;99.90
55812;DHT22;41742;52.048;6.092;2022-08-01T09:23:52;19.90;99.90
55812;DHT22;41742;52.048;6.092;2022-08-01T09:26:30;19.80;99.90
55812;DHT22;41742;52.048;6.092;2022-08-01T09:28:56;19.80;99.90
55812;DHT22;41742;52.048;6.092;2022-08-01T09:31:22;19.70;99.90
55812;DHT22;41742;52.048;6.092;2022-08-01T09:36:21;19.60;99.90
55812;DHT22;41742;52.048;6.092;2022-08-01T09:38:47;19.60;99.90
55812;DHT22;41742;52.048;6.092;2022-08-01T09:41:12;19.70;99.90
55812;DHT22;41742;52.048;6.092;2022-08-01T09:43:38;19.70;99.90
55812;DHT22;41742;52.048;6.092;2022-08-01T09:46:09;19.80;99.90
55812;DHT22;41742;52.048;6.092;2022-08-01T09:48:37;19.90;99.90
55812;DHT22;41742;52.048;6.092;2022-08-01T09:51:05;20.00;99.90
55812;DHT22;41742;52.048;6.092;2022-08-01T09:53:41;20.00;99.90
55812;DHT22;41742;52.048;6.092;2022-08-01T09:56:12;20.10;99.90
55812;DHT22;41742;52.048;6.092;2022-08-01T09:58:58;20.10;99.90
55812;DHT22;41742;52.048;6.092;2022-08-01T10:01:24;20.10;99.90
55812;DHT22;41742;52.048;6.092;2022-08-01T10:04:11;20.00;99.90
55812;DHT22;41742;52.048;6.092;2022-08-01T10:06:38;19.90;99.90
55812;DHT22;41742;52.048;6.092;2022-08-01T10:09:04;19.90;99.90
55812;DHT22;41742;52.048;6.092;2022-08-01T10:11:32;19.90;99.90
55812;DHT22;41742;52.048;6.092;2022-08-01T10:13:59;19.90;99.90
55812;DHT22;41742;52.048;6.092;2022-08-01T10:16:26;19.90;99.90
55812;DHT22;41742;52.048;6.092;2022-08-01T10:18:54;19.90;99.90
55812;DHT22;41742;52.048;6.092;2022-08-01T10:21:20;19.90;99.90
55812;DHT22;41742;52.048;6.092;2022-08-01T10:23:47;19.90;99.90
55812;DHT22;41742;52.048;6.092;2022-08-01T10:26:14;20.00;99.90
55812;DHT22;41742;52.048;6.092;2022-08-01T10:28:44;20.20;99.90
55812;DHT22;41742;52.048;6.092;2022-08-01T10:31:11;20.30;99.90
55812;DHT22;41742;52.048;6.092;2022-08-01T10:33:37;20.40;99.90
55812;DHT22;41742;52.048;6.092;2022-08-01T10:36:05;20.40;99.90
55812;DHT22;41742;52.048;6.092;2022-08-01T10:38:31;20.40;99.90
55812;DHT22;41742;52.048;6.092;2022-08-01T10:40:57;20.30;99.90
55812;DHT22;41742;52.048;6.092;2022-08-01T10:43:24;20.40;99.90
55812;DHT22;41742;52.048;6.092;2022-08-01T10:45:50;20.50;99.90
55812;DHT22;41742;52.048;6.092;2022-08-01T10:51:05;21.00;99.90
55812;DHT22;41742;52.048;6.092;2022-08-01T10:53:31;21.50;99.90
55812;DHT22;41742;52.048;6.092;2022-08-01T10:56:02;21.60;99.90
55812;DHT22;41742;52.048;6.092;2022-08-01T10:58:35;21.50;99.90
55812;DHT22;41742;52.048;6.092;2022-08-01T11:01:29;21.50;99.90
55812;DHT22;41742;52.048;6.092;2022-08-01T11:03:58;21.50;99.90
55812;DHT22;41742;52.048;6.092;2022-08-01T11:09:21;21.80;99.90
55812;DHT22;41742;52.048;6.092;2022-08-01T11:12:13;21.90;99.90
55812;DHT22;41742;52.048;6.092;2022-08-01T11:20:12;22.10;99.90
55812;DHT22;41742;52.048;6.092;2022-08-01T11:30:51;22.60;99.90
55812;DHT22;41742;52.048;6.092;2022-08-01T11:39:24;22.80;99.90
55812;DHT22;41742;52.048;6.092;2022-08-01T11:41:28;22.90;99.90
55812;DHT22;41742;52.048;6.092;2022-08-01T11:49:24;23.20;99.90
55812;DHT22;41742;52.048;6.092;2022-08-01T11:54:28;23.40;99.90
55812;DHT22;41742;52.048;6.092;2022-08-01T11:56:59;23.20;99.90
55812;DHT22;41742;52.048;6.092;2022-08-01T11:59:25;23.30;99.90
55812;DHT22;41742;52.048;6.092;2022-08-01T12:01:51;23.20;99.90
55812;DHT22;41742;52.048;6.092;2022-08-01T12:04:17;23.20;99.90
55812;DHT22;41742;52.048;6.092;2022-08-01T12:06:43;23.20;99.90
55812;DHT22;41742;52.048;6.092;2022-08-01T12:09:20;23.30;99.90
55812;DHT22;41742;52.048;6.092;2022-08-01T12:11:46;23.30;99.90
55812;DHT22;41742;52.048;6.092;2022-08-01T12:14:19;23.40;99.90
55812;DHT22;41742;52.048;6.092;2022-08-01T12:16:50;23.40;99.90
55812;DHT22;41742;52.048;6.092;2022-08-01T12:19:23;23.30;99.90
55812;DHT22;41742;52.048;6.092;2022-08-01T12:22:11;23.20;99.90
55812;DHT22;41742;52.048;6.092;2022-08-01T12:24:38;23.20;99.90
55812;DHT22;41742;52.048;6.092;2022-08-01T12:27:05;23.20;99.90
55812;DHT22;41742;52.048;6.092;2022-08-01T12:29:41;23.30;99.90
55812;DHT22;41742;52.048;6.092;2022-08-01T12:32:36;23.50;99.90
55812;DHT22;41742;52.048;6.092;2022-08-01T12:37:47;23.60;99.90
55812;DHT22;41742;52.048;6.092;2022-08-01T12:42:46;24.00;99.90
55812;DHT22;41742;52.048;6.092;2022-08-01T12:45:20;24.60;99.90
55812;DHT22;41742;52.048;6.092;2022-08-01T12:47:47;24.50;99.90
55812;DHT22;41742;52.048;6.092;2022-08-01T12:50:15;24.30;99.90
55812;DHT22;41742;52.048;6.092;2022-08-01T12:52:42;24.10;99.90
55812;DHT22;41742;52.048;6.092;2022-08-01T12:55:12;24.00;99.90
55812;DHT22;41742;52.048;6.092;2022-08-01T12:57:41;23.80;99.90
55812;DHT22;41742;52.048;6.092;2022-08-01T13:00:19;24.00;99.90
55812;DHT22;41742;52.048;6.092;2022-08-01T13:02:47;24.50;99.90
55812;DHT22;41742;52.048;6.092;2022-08-01T13:05:13;24.60;99.90
55812;DHT22;41742;52.048;6.092;2022-08-01T13:10:07;24.50;99.90
55812;DHT22;41742;52.048;6.092;2022-08-01T13:12:33;24.70;99.90
55812;DHT22;41742;52.048;6.092;2022-08-01T13:14:59;24.80;99.90
55812;DHT22;41742;52.048;6.092;2022-08-01T13:17:34;24.70;99.90
55812;DHT22;41742;52.048;6.092;2022-08-01T13:20:04;24.50;99.90
55812;DHT22;41742;52.048;6.092;2022-08-01T13:22:37;24.40;99.90
55812;DHT22;41742;52.048;6.092;2022-08-01T13:25:13;24.30;99.90
55812;DHT22;41742;52.048;6.092;2022-08-01T13:27:39;24.30;99.90
55812;DHT22;41742;52.048;6.092;2022-08-01T13:30:15;24.30;99.90
55812;DHT22;41742;52.048;6.092;2022-08-01T13:32:42;24.30;99.90
55812;DHT22;41742;52.048;6.092;2022-08-01T13:35:11;24.20;99.90
55812;DHT22;41742;52.048;6.092;2022-08-01T13:37:39;24.70;99.90
55812;DHT22;41742;52.048;6.092;2022-08-01T13:40:10;24.80;99.40
55812;DHT22;41742;52.048;6.092;2022-08-01T13:42:36;25.10;99.50
55812;DHT22;41742;52.048;6.092;2022-08-01T13:45:03;25.10;99.90
55812;DHT22;41742;52.048;6.092;2022-08-01T13:47:29;25.60;99.90
55812;DHT22;41742;52.048;6.092;2022-08-01T13:49:55;26.40;99.90
55812;DHT22;41742;52.048;6.092;2022-08-01T13:52:25;26.80;98.50
55812;DHT22;41742;52.048;6.092;2022-08-01T13:54:51;27.00;97.90
55812;DHT22;41742;52.048;6.092;2022-08-01T13:57:16;26.30;96.60
55812;DHT22;41742;52.048;6.092;2022-08-01T13:59:42;25.50;96.90
55812;DHT22;41742;52.048;6.092;2022-08-01T14:02:07;25.30;97.70
55812;DHT22;41742;52.048;6.092;2022-08-01T14:04:33;25.40;98.10
55812;DHT22;41742;52.048;6.092;2022-08-01T14:06:59;25.50;97.80
55812;DHT22;41742;52.048;6.092;2022-08-01T14:09:24;26.40;97.60
55812;DHT22;41742;52.048;6.092;2022-08-01T14:11:50;26.70;97.10
55812;DHT22;41742;52.048;6.092;2022-08-01T14:14:16;26.10;97.40
55812;DHT22;41742;52.048;6.092;2022-08-01T14:16:42;25.80;99.10
55812;DHT22;41742;52.048;6.092;2022-08-01T14:19:10;25.60;98.80
55812;DHT22;41742;52.048;6.092;2022-08-01T14:21:35;25.60;99.60
55812;DHT22;41742;52.048;6.092;2022-08-01T14:24:01;25.50;98.40
55812;DHT22;41742;52.048;6.092;2022-08-01T14:26:26;26.00;98.40
55812;DHT22;41742;52.048;6.092;2022-08-01T14:28:54;26.70;98.60
55812;DHT22;41742;52.048;6.092;2022-08-01T14:31:20;26.80;96.70
55812;DHT22;41742;52.048;6.092;2022-08-01T14:33:45;26.70;96.30
55812;DHT22;41742;52.048;6.092;2022-08-01T14:36:11;26.70;97.00
55812;DHT22;41742;52.048;6.092;2022-08-01T14:38:37;26.70;94.40
55812;DHT22;41742;52.048;6.092;2022-08-01T14:41:05;26.70;94.20
55812;DHT22;41742;52.048;6.092;2022-08-01T14:43:31;26.90;94.30
55812;DHT22;41742;52.048;6.092;2022-08-01T14:46:00;27.00;93.60
55812;DHT22;41742;52.048;6.092;2022-08-01T14:48:26;27.20;93.50
55812;DHT22;41742;52.048;6.092;2022-08-01T14:50:51;27.40;93.40
55812;DHT22;41742;52.048;6.092;2022-08-01T14:53:17;27.70;94.20
55812;DHT22;41742;52.048;6.092;2022-08-01T14:55:43;28.10;94.10
55812;DHT22;41742;52.048;6.092;2022-08-01T14:58:09;28.40;92.00
55812;DHT22;41742;52.048;6.092;2022-08-01T15:00:34;28.40;90.80
55812;DHT22;41742;52.048;6.092;2022-08-01T15:03:00;28.20;92.60
55812;DHT22;41742;52.048;6.092;2022-08-01T15:05:26;27.90;93.60
55812;DHT22;41742;52.048;6.092;2022-08-01T15:07:52;28.40;92.50
55812;DHT22;41742;52.048;6.092;2022-08-01T15:10:17;28.30;91.70
55812;DHT22;41742;52.048;6.092;2022-08-01T15:12:43;27.70;91.20
55812;DHT22;41742;52.048;6.092;2022-08-01T15:15:09;27.20;92.30
55812;DHT22;41742;52.048;6.092;2022-08-01T15:17:35;27.20;91.40
55812;DHT22;41742;52.048;6.092;2022-08-01T15:20:03;26.90;90.70
55812;DHT22;41742;52.048;6.092;2022-08-01T15:22:30;26.50;92.40
55812;DHT22;41742;52.048;6.092;2022-08-01T15:24:57;26.40;91.20
55812;DHT22;41742;52.048;6.092;2022-08-01T15:27:26;26.70;91.00
55812;DHT22;41742;52.048;6.092;2022-08-01T15:29:52;26.50;91.10
55812;DHT22;41742;52.048;6.092;2022-08-01T15:32:18;26.80;91.20
55812;DHT22;41742;52.048;6.092;2022-08-01T15:34:44;26.80;88.40
55812;DHT22;41742;52.048;6.092;2022-08-01T15:37:10;27.20;89.50
55812;DHT22;41742;52.048;6.092;2022-08-01T15:39:42;27.60;90.70
55812;DHT22;41742;52.048;6.092;2022-08-01T15:42:10;27.70;87.30
55812;DHT22;41742;52.048;6.092;2022-08-01T15:44:36;27.90;88.60
55812;DHT22;41742;52.048;6.092;2022-08-01T15:47:03;27.90;87.30
55812;DHT22;41742;52.048;6.092;2022-08-01T15:49:29;27.80;86.40
55812;DHT22;41742;52.048;6.092;2022-08-01T15:51:58;27.20;87.60
55812;DHT22;41742;52.048;6.092;2022-08-01T15:54:24;27.40;89.40
55812;DHT22;41742;52.048;6.092;2022-08-01T15:56:49;27.30;90.00
55812;DHT22;41742;52.048;6.092;2022-08-01T15:59:16;27.80;90.80
55812;DHT22;41742;52.048;6.092;2022-08-01T16:01:42;28.00;87.80
55812;DHT22;41742;52.048;6.092;2022-08-01T16:04:07;28.30;85.80
55812;DHT22;41742;52.048;6.092;2022-08-01T16:06:36;28.30;85.60
55812;DHT22;41742;52.048;6.092;2022-08-01T16:09:03;28.40;84.10
55812;DHT22;41742;52.048;6.092;2022-08-01T16:11:29;28.50;80.50
55812;DHT22;41742;52.048;6.092;2022-08-01T16:13:56;28.40;78.60
55812;DHT22;41742;52.048;6.092;2022-08-01T16:16:22;28.30;79.30
55812;DHT22;41742;52.048;6.092;2022-08-01T16:18:48;28.20;78.20
55812;DHT22;41742;52.048;6.092;2022-08-01T16:21:14;28.00;75.50
55812;DHT22;41742;52.048;6.092;2022-08-01T16:23:41;28.20;80.10
55812;DHT22;41742;52.048;6.092;2022-08-01T16:26:08;28.10;75.70